sensor_id;sensor_type;location;lat;lon;timestamp;pressure;altitude;pressure_sealevel;temperature;humidity
17260;BME280;8746;49.230;9.220;2023-03-23T00:02:29;99280.31;;;12.53;67.36
17260;BME280;8746;49.230;9.220;2023-03-23T00:04:55;99280.50;;;12.50;67.44
17260;BME280;8746;49.230;9.220;2023-03-23T00:07:22;99282.03;;;12.54;68.06
17260;BME280;8746;49.230;9.220;2023-03-23T00:09:52;99278.34;;;12.57;67.10
17260;BME280;8746;49.230;9.220;2023-03-23T00:12:22;99276.38;;;12.60;67.21
17260;BME280;8746;49.230;9.220;2023-03-23T00:14:57;99275.03;;;12.53;67.08
17260;BME280;8746;49.230;9.220;2023-03-23T00:17:22;99275.69;;;12.57;66.32
17260;BME280;8746;49.230;9.220;2023-03-23T00:19:49;99273.06;;;12.57;66.40
17260;BME280;8746;49.230;9.220;2023-03-23T00:22:15;99274.97;;;12.69;66.14
17260;BME280;8746;49.230;9.220;2023-03-23T00:24:42;99276.19;;;12.63;66.17
17260;BME280;8746;49.230;9.220;2023-03-23T00:27:08;99279.41;;;12.69;66.33
17260;BME280;8746;49.230;9.220;2023-03-23T00:29:40;99271.09;;;12.60;66.17
17260;BME280;8746;49.230;9.220;2023-03-23T00:32:06;99272.44;;;12.68;65.73
17260;BME280;8746;49.230;9.220;2023-03-23T00:34:31;99271.81;;;12.62;66.14
17260;BME280;8746;49.230;9.220;2023-03-23T00:36:59;99265.78;;;12.60;66.19
17260;BME280;8746;49.230;9.220;2023-03-23T00:39:25;99261.25;;;12.62;66.08
17260;BME280;8746;49.230;9.220;2023-03-23T00:41:53;99249.03;;;12.60;65.61
17260;BME280;8746;49.230;9.220;2023-03-23T00:44:19;99247.00;;;12.65;65.72
17260;BME280;8746;49.230;9.220;2023-03-23T00:46:48;99245.38;;;12.62;65.41
17260;BME280;8746;49.230;9.220;2023-03-23T00:49:17;99237.34;;;12.64;65.36
17260;BME280;8746;49.230;9.220;2023-03-23T00:51:43;99237.06;;;12.69;65.06
17260;BME280;8746;49.230;9.220;2023-03-23T00:54:09;99228.56;;;12.92;64.06
17260;BME280;8746;49.230;9.220;2023-03-23T00:56:36;99226.19;;;12.73;65.14
17260;BME280;8746;49.230;9.220;2023-03-23T00:59:02;99228.28;;;12.68;65.21
17260;BME280;8746;49.230;9.220;2023-03-23T01:01:27;99216.75;;;12.69;65.02
17260;BME280;8746;49.230;9.220;2023-03-23T01:03:53;99215.16;;;12.81;64.34
17260;BME280;8746;49.230;9.220;2023-03-23T01:06:27;99207.22;;;12.81;63.92
17260;BME280;8746;49.230;9.220;2023-03-23T01:08:52;99203.59;;;12.82;63.99
17260;BME280;8746;49.230;9.220;2023-03-23T01:11:19;99206.19;;;12.83;63.47
17260;BME280;8746;49.230;9.220;2023-03-23T01:13:44;99200.59;;;12.88;63.07
17260;BME280;8746;49.230;9.220;2023-03-23T01:16:10;99205.91;;;12.88;63.02
17260;BME280;8746;49.230;9.220;2023-03-23T01:18:36;99200.97;;;12.82;63.56
17260;BME280;8746;49.230;9.220;2023-03-23T01:21:10;99204.38;;;12.84;63.22
17260;BME280;8746;49.230;9.220;2023-03-23T01:23:36;99192.84;;;12.99;62.50
17260;BME280;8746;49.230;9.220;2023-03-23T01:26:06;99197.84;;;12.90;63.34
17260;BME280;8746;49.230;9.220;2023-03-23T01:28:33;99202.94;;;12.78;63.99
17260;BME280;8746;49.230;9.220;2023-03-23T01:31:00;99189.53;;;12.81;63.58
17260;BME280;8746;49.230;9.220;2023-03-23T01:33:26;99184.41;;;12.78;63.65
17260;BME280;8746;49.230;9.220;2023-03-23T01:35:51;99183.78;;;12.75;64.42
17260;BME280;8746;49.230;9.220;2023-03-23T01:38:16;99186.78;;;12.83;63.86
17260;BME280;8746;49.230;9.220;2023-03-23T01:40:43;99182.53;;;12.80;64.23
17260;BME280;8746;49.230;9.220;2023-03-23T01:43:14;99173.19;;;12.75;64.18
17260;BME280;8746;49.230;9.220;2023-03-23T01:45:40;99176.19;;;12.83;64.04
17260;BME280;8746;49.230;9.220;2023-03-23T01:48:27;99179.44;;;12.88;63.98
17260;BME280;8746;49.230;9.220;2023-03-23T01:51:10;99179.78;;;12.82;64.40
17260;BME280;8746;49.230;9.220;2023-03-23T01:53:40;99171.56;;;12.87;64.09
17260;BME280;8746;49.230;9.220;2023-03-23T01:56:07;99170.22;;;12.79;64.84
17260;BME280;8746;49.230;9.220;2023-03-23T01:58:37;99172.78;;;12.95;63.63
17260;BME280;8746;49.230;9.220;2023-03-23T02:01:09;99163.34;;;12.91;64.41
17260;BME280;8746;49.230;9.220;2023-03-23T02:03:37;99173.09;;;12.91;64.67
17260;BME280;8746;49.230;9.220;2023-03-23T02:06:04;99172.22;;;12.90;64.41
17260;BME280;8746;49.230;9.220;2023-03-23T02:08:31;99164.50;;;12.87;64.64
17260;BME280;8746;49.230;9.220;2023-03-23T02:10:58;99157.28;;;13.04;64.07
17260;BME280;8746;49.230;9.220;2023-03-23T02:13:24;99163.81;;;12.98;63.83
17260;BME280;8746;49.230;9.220;2023-03-23T02:21:59;99159.63;;;13.08;63.90
17260;BME280;8746;49.230;9.220;2023-03-23T02:27:14;99152.38;;;12.97;64.23
17260;BME280;8746;49.230;9.220;2023-03-23T02:38:02;99111.28;;;13.19;63.08
17260;BME280;8746;49.230;9.220;2023-03-23T02:40:33;99119.88;;;13.23;62.39
17260;BME280;8746;49.230;9.220;2023-03-23T02:43:03;99121.22;;;13.15;62.98
17260;BME280;8746;49.230;9.220;2023-03-23T02:45:33;99109.69;;;13.17;63.18
17260;BME280;8746;49.230;9.220;2023-03-23T02:48:00;99104.09;;;13.21;62.83
17260;BME280;8746;49.230;9.220;2023-03-23T02:50:27;99105.50;;;13.12;63.26
17260;BME280;8746;49.230;9.220;2023-03-23T02:52:55;99107.69;;;13.20;62.79
17260;BME280;8746;49.230;9.220;2023-03-23T02:55:22;99106.53;;;13.24;62.29
17260;BME280;8746;49.230;9.220;2023-03-23T02:57:52;99119.66;;;13.26;62.37
17260;BME280;8746;49.230;9.220;2023-03-23T03:00:18;99111.94;;;13.23;62.82
17260;BME280;8746;49.230;9.220;2023-03-23T03:02:48;99114.19;;;13.29;62.27
17260;BME280;8746;49.230;9.220;2023-03-23T03:10:59;99103.66;;;13.42;61.63
17260;BME280;8746;49.230;9.220;2023-03-23T03:16:28;99098.66;;;13.65;60.99
17260;BME280;8746;49.230;9.220;2023-03-23T03:21:28;99096.94;;;13.51;61.04
17260;BME280;8746;49.230;9.220;2023-03-23T03:24:00;99097.75;;;13.51;61.08
17260;BME280;8746;49.230;9.220;2023-03-23T03:26:27;99096.28;;;13.47;61.56
17260;BME280;8746;49.230;9.220;2023-03-23T03:28:55;99105.72;;;13.37;61.97
17260;BME280;8746;49.230;9.220;2023-03-23T03:31:24;99103.28;;;13.34;62.48
17260;BME280;8746;49.230;9.220;2023-03-23T03:33:51;99097.88;;;13.35;62.17
17260;BME280;8746;49.230;9.220;2023-03-23T03:36:24;99098.47;;;13.26;62.90
17260;BME280;8746;49.230;9.220;2023-03-23T03:38:51;99095.94;;;13.24;63.19
17260;BME280;8746;49.230;9.220;2023-03-23T03:41:18;99099.53;;;13.23;62.66
17260;BME280;8746;49.230;9.220;2023-03-23T03:43:43;99099.53;;;13.23;62.90
17260;BME280;8746;49.230;9.220;2023-03-23T03:46:09;99100.66;;;13.34;62.32
17260;BME280;8746;49.230;9.220;2023-03-23T03:48:34;99092.34;;;13.25;62.58
17260;BME280;8746;49.230;9.220;2023-03-23T03:51:00;99098.69;;;13.23;63.17
17260;BME280;8746;49.230;9.220;2023-03-23T03:53:27;99095.94;;;13.24;62.61
17260;BME280;8746;49.230;9.220;2023-03-23T03:55:53;99099.56;;;13.09;63.08
17260;BME280;8746;49.230;9.220;2023-03-23T03:58:22;99098.84;;;13.07;63.39
17260;BME280;8746;49.230;9.220;2023-03-23T04:00:48;99101.78;;;13.02;63.84
17260;BME280;8746;49.230;9.220;2023-03-23T04:03:14;99100.31;;;13.11;63.48
17260;BME280;8746;49.230;9.220;2023-03-23T04:05:40;99103.47;;;13.30;62.79
17260;BME280;8746;49.230;9.220;2023-03-23T04:08:06;99100.03;;;13.15;63.37
17260;BME280;8746;49.230;9.220;2023-03-23T04:10:32;99104.81;;;13.23;62.61
17260;BME280;8746;49.230;9.220;2023-03-23T04:12:58;99107.78;;;13.19;62.59
17260;BME280;8746;49.230;9.220;2023-03-23T04:15:23;99103.75;;;13.13;63.21
17260;BME280;8746;49.230;9.220;2023-03-23T04:17:49;99101.53;;;13.20;62.69
17260;BME280;8746;49.230;9.220;2023-03-23T04:20:15;99095.25;;;13.08;63.29
17260;BME280;8746;49.230;9.220;2023-03-23T04:22:44;99098.56;;;12.97;63.83
17260;BME280;8746;49.230;9.220;2023-03-23T04:25:12;99094.28;;;13.09;63.59
17260;BME280;8746;49.230;9.220;2023-03-23T04:27:39;99091.19;;;13.02;63.83
17260;BME280;8746;49.230;9.220;2023-03-23T04:30:05;99096.22;;;12.92;63.90
17260;BME280;8746;49.230;9.220;2023-03-23T04:32:31;99099.03;;;12.89;64.04
17260;BME280;8746;49.230;9.220;2023-03-23T04:34:58;99092.66;;;13.06;63.74
17260;BME280;8746;49.230;9.220;2023-03-23T04:37:25;99092.59;;;13.08;63.72
17260;BME280;8746;49.230;9.220;2023-03-23T04:39:59;99098.25;;;13.02;64.07
17260;BME280;8746;49.230;9.220;2023-03-23T04:42:31;99099.81;;;12.91;64.76
17260;BME280;8746;49.230;9.220;2023-03-23T04:44:58;99106.97;;;12.89;64.63
17260;BME280;8746;49.230;9.220;2023-03-23T04:47:24;99107.38;;;12.83;65.22
17260;BME280;8746;49.230;9.220;2023-03-23T04:49:57;99113.59;;;12.96;64.57
17260;BME280;8746;49.230;9.220;2023-03-23T04:52:24;99108.94;;;13.00;64.71
17260;BME280;8746;49.230;9.220;2023-03-23T04:54:51;99108.50;;;12.93;65.32
17260;BME280;8746;49.230;9.220;2023-03-23T04:57:16;99103.22;;;12.93;65.47
17260;BME280;8746;49.230;9.220;2023-03-23T04:59:42;99115.50;;;12.94;65.09
17260;BME280;8746;49.230;9.220;2023-03-23T05:02:09;99115.50;;;12.94;65.16
17260;BME280;8746;49.230;9.220;2023-03-23T05:04:34;99114.59;;;12.81;65.74
17260;BME280;8746;49.230;9.220;2023-03-23T05:07:00;99110.91;;;12.69;66.64
17260;BME280;8746;49.230;9.220;2023-03-23T05:09:25;99106.25;;;12.73;66.33
17260;BME280;8746;49.230;9.220;2023-03-23T05:11:50;99110.25;;;12.65;66.40
17260;BME280;8746;49.230;9.220;2023-03-23T05:14:16;99111.72;;;12.70;66.84
17260;BME280;8746;49.230;9.220;2023-03-23T05:16:41;99117.22;;;12.66;66.98
17260;BME280;8746;49.230;9.220;2023-03-23T05:19:07;99118.94;;;12.68;67.23
17260;BME280;8746;49.230;9.220;2023-03-23T05:21:33;99112.88;;;12.65;67.48
17260;BME280;8746;49.230;9.220;2023-03-23T05:23:59;99118.72;;;12.71;67.30
17260;BME280;8746;49.230;9.220;2023-03-23T05:26:26;99123.47;;;12.65;67.76
17260;BME280;8746;49.230;9.220;2023-03-23T05:28:55;99134.22;;;12.62;68.01
17260;BME280;8746;49.230;9.220;2023-03-23T05:31:21;99123.63;;;12.62;67.69
17260;BME280;8746;49.230;9.220;2023-03-23T05:33:47;99124.41;;;12.79;67.31
17260;BME280;8746;49.230;9.220;2023-03-23T05:36:12;99120.88;;;12.78;67.27
17260;BME280;8746;49.230;9.220;2023-03-23T05:38:41;99119.38;;;12.89;66.90
17260;BME280;8746;49.230;9.220;2023-03-23T05:41:11;99126.84;;;12.82;67.27
17260;BME280;8746;49.230;9.220;2023-03-23T05:43:36;99129.88;;;12.76;68.00
17260;BME280;8746;49.230;9.220;2023-03-23T05:46:01;99129.97;;;12.74;67.97
17260;BME280;8746;49.230;9.220;2023-03-23T05:48:28;99138.19;;;12.70;68.73
17260;BME280;8746;49.230;9.220;2023-03-23T05:50:53;99144.81;;;12.77;68.33
17260;BME280;8746;49.230;9.220;2023-03-23T05:53:18;99156.94;;;12.81;67.48
17260;BME280;8746;49.230;9.220;2023-03-23T05:55:44;99160.69;;;12.77;68.02
17260;BME280;8746;49.230;9.220;2023-03-23T05:58:10;99160.91;;;12.74;68.26
17260;BME280;8746;49.230;9.220;2023-03-23T06:00:35;99173.00;;;12.78;68.50
17260;BME280;8746;49.230;9.220;2023-03-23T06:03:01;99172.44;;;12.73;69.18
17260;BME280;8746;49.230;9.220;2023-03-23T06:05:27;99184.91;;;12.71;69.76
17260;BME280;8746;49.230;9.220;2023-03-23T06:07:54;99188.59;;;12.68;70.26
17260;BME280;8746;49.230;9.220;2023-03-23T06:10:20;99192.44;;;12.62;71.45
17260;BME280;8746;49.230;9.220;2023-03-23T06:12:46;99185.53;;;12.60;72.14
17260;BME280;8746;49.230;9.220;2023-03-23T06:15:11;99191.44;;;12.65;69.77
17260;BME280;8746;49.230;9.220;2023-03-23T06:17:37;99190.38;;;12.68;70.09
17260;BME280;8746;49.230;9.220;2023-03-23T06:20:04;99176.00;;;12.86;68.37
17260;BME280;8746;49.230;9.220;2023-03-23T06:22:39;99186.78;;;12.97;68.02
17260;BME280;8746;49.230;9.220;2023-03-23T06:25:09;99192.06;;;12.97;68.67
17260;BME280;8746;49.230;9.220;2023-03-23T06:27:34;99203.59;;;12.96;69.23
17260;BME280;8746;49.230;9.220;2023-03-23T06:30:01;99192.63;;;13.03;69.69
17260;BME280;8746;49.230;9.220;2023-03-23T06:32:28;99193.88;;;12.97;69.64
17260;BME280;8746;49.230;9.220;2023-03-23T06:34:54;99194.53;;;13.01;69.64
17260;BME280;8746;49.230;9.220;2023-03-23T06:37:20;99198.13;;;12.99;70.00
17260;BME280;8746;49.230;9.220;2023-03-23T06:39:45;99196.22;;;13.02;70.13
17260;BME280;8746;49.230;9.220;2023-03-23T06:42:11;99199.47;;;13.07;70.00
17260;BME280;8746;49.230;9.220;2023-03-23T06:44:37;99204.09;;;13.03;70.31
17260;BME280;8746;49.230;9.220;2023-03-23T06:47:03;99204.38;;;12.98;70.77
17260;BME280;8746;49.230;9.220;2023-03-23T06:49:28;99209.00;;;13.09;70.13
17260;BME280;8746;49.230;9.220;2023-03-23T06:51:54;99194.59;;;13.13;69.78
17260;BME280;8746;49.230;9.220;2023-03-23T06:54:21;99203.09;;;13.19;69.59
17260;BME280;8746;49.230;9.220;2023-03-23T06:56:46;99217.22;;;13.19;69.74
17260;BME280;8746;49.230;9.220;2023-03-23T06:59:12;99207.69;;;13.17;70.55
17260;BME280;8746;49.230;9.220;2023-03-23T07:01:37;99215.13;;;13.10;69.93
17260;BME280;8746;49.230;9.220;2023-03-23T07:04:03;99211.72;;;13.22;69.78
17260;BME280;8746;49.230;9.220;2023-03-23T07:06:28;99217.78;;;13.10;70.58
17260;BME280;8746;49.230;9.220;2023-03-23T07:08:54;99224.22;;;13.06;71.03
17260;BME280;8746;49.230;9.220;2023-03-23T07:11:19;99222.53;;;13.05;71.08
17260;BME280;8746;49.230;9.220;2023-03-23T07:13:45;99228.28;;;13.11;71.20
17260;BME280;8746;49.230;9.220;2023-03-23T07:16:11;99226.66;;;13.09;72.03
17260;BME280;8746;49.230;9.220;2023-03-23T07:18:36;99230.75;;;13.14;71.84
17260;BME280;8746;49.230;9.220;2023-03-23T07:21:02;99239.19;;;13.07;71.93
17260;BME280;8746;49.230;9.220;2023-03-23T07:23:29;99248.63;;;13.11;71.82
17260;BME280;8746;49.230;9.220;2023-03-23T07:25:55;99244.25;;;13.10;72.67
17260;BME280;8746;49.230;9.220;2023-03-23T07:28:20;99252.22;;;13.10;72.00
17260;BME280;8746;49.230;9.220;2023-03-23T07:30:46;99251.38;;;13.09;71.73
17260;BME280;8746;49.230;9.220;2023-03-23T07:33:11;99264.34;;;13.14;71.90
17260;BME280;8746;49.230;9.220;2023-03-23T07:35:37;99261.66;;;13.28;71.65
17260;BME280;8746;49.230;9.220;2023-03-23T07:38:03;99267.19;;;13.40;72.03
17260;BME280;8746;49.230;9.220;2023-03-23T07:40:29;99275.13;;;13.40;71.30
17260;BME280;8746;49.230;9.220;2023-03-23T07:42:58;99285.41;;;13.59;71.22
17260;BME280;8746;49.230;9.220;2023-03-23T07:45:24;99273.75;;;13.61;70.57
17260;BME280;8746;49.230;9.220;2023-03-23T07:47:50;99269.94;;;13.80;70.42
17260;BME280;8746;49.230;9.220;2023-03-23T07:50:16;99273.78;;;14.16;70.02
17260;BME280;8746;49.230;9.220;2023-03-23T07:52:42;99274.19;;;14.10;69.77
17260;BME280;8746;49.230;9.220;2023-03-23T07:55:10;99271.91;;;14.18;69.13
17260;BME280;8746;49.230;9.220;2023-03-23T07:57:43;99277.84;;;14.22;67.86
17260;BME280;8746;49.230;9.220;2023-03-23T08:00:09;99290.06;;;14.24;67.55
17260;BME280;8746;49.230;9.220;2023-03-23T08:02:40;99300.38;;;14.29;67.39
17260;BME280;8746;49.230;9.220;2023-03-23T08:05:07;99295.47;;;14.23;67.89
17260;BME280;8746;49.230;9.220;2023-03-23T08:07:33;99297.59;;;14.31;67.93
17260;BME280;8746;49.230;9.220;2023-03-23T08:09:59;99305.38;;;14.06;69.48
17260;BME280;8746;49.230;9.220;2023-03-23T08:12:25;99296.91;;;14.14;69.27
17260;BME280;8746;49.230;9.220;2023-03-23T08:14:50;99306.69;;;14.14;70.24
17260;BME280;8746;49.230;9.220;2023-03-23T08:17:16;99314.41;;;13.89;72.06
17260;BME280;8746;49.230;9.220;2023-03-23T08:19:41;99321.66;;;13.73;73.52
17260;BME280;8746;49.230;9.220;2023-03-23T08:22:08;99315.41;;;13.74;72.81
17260;BME280;8746;49.230;9.220;2023-03-23T08:24:34;99321.56;;;13.60;74.26
17260;BME280;8746;49.230;9.220;2023-03-23T08:27:00;99327.16;;;13.55;75.24
17260;BME280;8746;49.230;9.220;2023-03-23T08:29:26;99325.09;;;13.46;75.82
17260;BME280;8746;49.230;9.220;2023-03-23T08:31:52;99320.63;;;13.46;76.89
17260;BME280;8746;49.230;9.220;2023-03-23T08:34:18;99328.09;;;13.25;77.87
17260;BME280;8746;49.230;9.220;2023-03-23T08:36:44;99337.84;;;13.39;78.08
17260;BME280;8746;49.230;9.220;2023-03-23T08:39:11;99333.28;;;13.27;78.99
17260;BME280;8746;49.230;9.220;2023-03-23T08:41:36;99331.72;;;13.39;78.83
17260;BME280;8746;49.230;9.220;2023-03-23T08:44:02;99333.97;;;13.45;78.14
17260;BME280;8746;49.230;9.220;2023-03-23T08:46:28;99330.78;;;13.54;78.03
17260;BME280;8746;49.230;9.220;2023-03-23T08:48:53;99328.69;;;13.59;77.21
17260;BME280;8746;49.230;9.220;2023-03-23T08:51:19;99333.59;;;13.66;76.76
17260;BME280;8746;49.230;9.220;2023-03-23T08:53:45;99325.28;;;13.99;76.81
17260;BME280;8746;49.230;9.220;2023-03-23T08:56:11;99323.69;;;13.97;76.74
17260;BME280;8746;49.230;9.220;2023-03-23T08:58:38;99329.63;;;14.27;75.45
17260;BME280;8746;49.230;9.220;2023-03-23T09:01:05;99319.03;;;14.27;75.05
17260;BME280;8746;49.230;9.220;2023-03-23T09:03:36;99322.72;;;14.25;74.73
17260;BME280;8746;49.230;9.220;2023-03-23T09:06:03;99320.00;;;14.26;75.30
17260;BME280;8746;49.230;9.220;2023-03-23T09:08:29;99329.84;;;14.24;75.37
17260;BME280;8746;49.230;9.220;2023-03-23T09:11:02;99318.44;;;14.37;74.28
17260;BME280;8746;49.230;9.220;2023-03-23T09:13:28;99317.59;;;14.36;74.39
17260;BME280;8746;49.230;9.220;2023-03-23T09:15:54;99317.50;;;14.78;72.98
17260;BME280;8746;49.230;9.220;2023-03-23T09:18:21;99327.81;;;14.55;73.12
17260;BME280;8746;49.230;9.220;2023-03-23T09:20:49;99329.03;;;14.37;72.85
17260;BME280;8746;49.230;9.220;2023-03-23T09:23:15;99328.53;;;14.72;72.45
17260;BME280;8746;49.230;9.220;2023-03-23T09:25:40;99325.38;;;14.93;71.46
17260;BME280;8746;49.230;9.220;2023-03-23T09:28:06;99328.47;;;15.25;70.63
17260;BME280;8746;49.230;9.220;2023-03-23T09:30:33;99324.50;;;15.57;67.98
17260;BME280;8746;49.230;9.220;2023-03-23T09:33:01;99336.44;;;15.12;68.70
17260;BME280;8746;49.230;9.220;2023-03-23T09:35:27;99340.56;;;14.90;69.15
17260;BME280;8746;49.230;9.220;2023-03-23T09:37:52;99335.47;;;14.60;70.20
17260;BME280;8746;49.230;9.220;2023-03-23T09:40:24;99340.41;;;14.66;71.37
17260;BME280;8746;49.230;9.220;2023-03-23T09:56:37;99392.38;;;14.29;72.47
17260;BME280;8746;49.230;9.220;2023-03-23T09:59:27;99376.88;;;14.08;74.58
17260;BME280;8746;49.230;9.220;2023-03-23T10:02:14;99398.69;;;14.13;75.14
17260;BME280;8746;49.230;9.220;2023-03-23T10:04:48;99390.84;;;13.97;76.97
17260;BME280;8746;49.230;9.220;2023-03-23T10:07:17;99395.13;;;13.85;77.94
17260;BME280;8746;49.230;9.220;2023-03-23T10:09:44;99394.91;;;13.88;77.78
17260;BME280;8746;49.230;9.220;2023-03-23T10:12:29;99402.69;;;13.77;78.61
17260;BME280;8746;49.230;9.220;2023-03-23T10:15:17;99393.50;;;13.83;79.31
17260;BME280;8746;49.230;9.220;2023-03-23T10:18:04;99400.81;;;13.79;79.82
17260;BME280;8746;49.230;9.220;2023-03-23T10:20:59;99415.00;;;13.78;80.42
17260;BME280;8746;49.230;9.220;2023-03-23T10:23:41;99400.97;;;13.61;81.68
17260;BME280;8746;49.230;9.220;2023-03-23T10:26:20;99410.63;;;13.48;82.84
17260;BME280;8746;49.230;9.220;2023-03-23T10:28:51;99414.31;;;13.60;83.49
17260;BME280;8746;49.230;9.220;2023-03-23T10:31:29;99408.84;;;13.63;84.38
17260;BME280;8746;49.230;9.220;2023-03-23T10:34:02;99397.75;;;13.71;84.70
17260;BME280;8746;49.230;9.220;2023-03-23T10:36:39;99400.41;;;13.85;85.47
17260;BME280;8746;49.230;9.220;2023-03-23T10:39:11;99397.38;;;13.91;85.08
17260;BME280;8746;49.230;9.220;2023-03-23T10:41:38;99403.91;;;13.86;84.90
17260;BME280;8746;49.230;9.220;2023-03-23T10:44:17;99411.94;;;13.55;87.52
17260;BME280;8746;49.230;9.220;2023-03-23T10:47:03;99410.06;;;13.57;88.03
17260;BME280;8746;49.230;9.220;2023-03-23T10:49:34;99408.94;;;13.47;89.19
17260;BME280;8746;49.230;9.220;2023-03-23T10:54:36;99405.53;;;13.45;91.60
17260;BME280;8746;49.230;9.220;2023-03-23T10:57:13;99399.34;;;13.44;91.80
17260;BME280;8746;49.230;9.220;2023-03-23T10:59:40;99406.09;;;13.65;89.10
17260;BME280;8746;49.230;9.220;2023-03-23T11:02:15;99405.91;;;13.53;90.44
17260;BME280;8746;49.230;9.220;2023-03-23T11:04:46;99393.97;;;13.75;89.16
17260;BME280;8746;49.230;9.220;2023-03-23T11:07:20;99389.91;;;13.40;90.59
17260;BME280;8746;49.230;9.220;2023-03-23T11:09:56;99388.97;;;13.56;92.11
17260;BME280;8746;49.230;9.220;2023-03-23T11:12:24;99400.03;;;13.48;93.03
17260;BME280;8746;49.230;9.220;2023-03-23T11:14:49;99398.50;;;13.44;93.05
17260;BME280;8746;49.230;9.220;2023-03-23T11:17:23;99378.66;;;13.51;92.76
17260;BME280;8746;49.230;9.220;2023-03-23T11:19:50;99372.41;;;13.67;92.55
17260;BME280;8746;49.230;9.220;2023-03-23T11:22:28;99379.66;;;13.92;91.81
17260;BME280;8746;49.230;9.220;2023-03-23T11:24:57;99382.78;;;13.99;89.99
17260;BME280;8746;49.230;9.220;2023-03-23T11:27:26;99375.41;;;14.31;88.56
17260;BME280;8746;49.230;9.220;2023-03-23T11:29:56;99383.34;;;14.31;86.59
17260;BME280;8746;49.230;9.220;2023-03-23T11:32:28;99386.91;;;14.45;85.63
17260;BME280;8746;49.230;9.220;2023-03-23T11:34:57;99400.34;;;14.14;85.44
17260;BME280;8746;49.230;9.220;2023-03-23T11:37:32;99384.94;;;14.06;85.47
17260;BME280;8746;49.230;9.220;2023-03-23T11:45:21;99405.88;;;13.97;83.96
17260;BME280;8746;49.230;9.220;2023-03-23T11:56:30;99417.25;;;14.13;83.17
17260;BME280;8746;49.230;9.220;2023-03-23T11:58:58;99422.19;;;13.76;84.42
17260;BME280;8746;49.230;9.220;2023-03-23T12:09:53;99422.28;;;13.89;83.74
17260;BME280;8746;49.230;9.220;2023-03-23T12:12:33;99418.00;;;14.01;82.65
17260;BME280;8746;49.230;9.220;2023-03-23T12:23:21;99404.84;;;14.41;80.25
17260;BME280;8746;49.230;9.220;2023-03-23T12:48:29;99381.09;;;14.25;78.76
17260;BME280;8746;49.230;9.220;2023-03-23T12:56:54;99382.00;;;14.38;77.24
17260;BME280;8746;49.230;9.220;2023-03-23T12:59:42;99380.00;;;14.42;76.50
17260;BME280;8746;49.230;9.220;2023-03-23T13:02:18;99367.75;;;14.26;77.00
17260;BME280;8746;49.230;9.220;2023-03-23T13:04:50;99363.13;;;14.16;76.04
17260;BME280;8746;49.230;9.220;2023-03-23T13:07:26;99365.56;;;14.19;76.90
17260;BME280;8746;49.230;9.220;2023-03-23T13:10:16;99354.69;;;14.23;76.83
17260;BME280;8746;49.230;9.220;2023-03-23T13:12:46;99350.56;;;14.32;76.99
17260;BME280;8746;49.230;9.220;2023-03-23T13:15:33;99340.38;;;14.53;75.92
17260;BME280;8746;49.230;9.220;2023-03-23T13:18:15;99334.28;;;14.51;74.95
17260;BME280;8746;49.230;9.220;2023-03-23T13:23:35;99337.34;;;14.72;74.02
17260;BME280;8746;49.230;9.220;2023-03-23T13:26:06;99337.91;;;14.90;73.34
17260;BME280;8746;49.230;9.220;2023-03-23T13:31:26;99345.13;;;14.76;73.52
17260;BME280;8746;49.230;9.220;2023-03-23T13:36:30;99332.53;;;14.65;73.79
17260;BME280;8746;49.230;9.220;2023-03-23T13:38:58;99326.13;;;14.54;73.88
17260;BME280;8746;49.230;9.220;2023-03-23T13:41:25;99327.75;;;14.30;74.89
17260;BME280;8746;49.230;9.220;2023-03-23T13:43:52;99314.81;;;14.38;75.68
17260;BME280;8746;49.230;9.220;2023-03-23T13:48:49;99287.31;;;14.66;73.81
17260;BME280;8746;49.230;9.220;2023-03-23T13:54:20;99280.09;;;14.81;72.56
17260;BME280;8746;49.230;9.220;2023-03-23T13:59:56;99278.81;;;15.00;71.82
17260;BME280;8746;49.230;9.220;2023-03-23T14:02:40;99283.81;;;14.79;72.09
17260;BME280;8746;49.230;9.220;2023-03-23T14:05:24;99284.16;;;14.87;71.24
17260;BME280;8746;49.230;9.220;2023-03-23T14:07:53;99288.19;;;14.80;71.58
17260;BME280;8746;49.230;9.220;2023-03-23T14:10:19;99278.63;;;14.77;71.95
17260;BME280;8746;49.230;9.220;2023-03-23T14:12:45;99278.50;;;14.66;71.31
17260;BME280;8746;49.230;9.220;2023-03-23T14:15:13;99283.41;;;14.72;71.60
17260;BME280;8746;49.230;9.220;2023-03-23T14:17:42;99283.41;;;14.72;71.84
17260;BME280;8746;49.230;9.220;2023-03-23T14:20:20;99292.38;;;14.56;72.45
17260;BME280;8746;49.230;9.220;2023-03-23T14:22:47;99286.00;;;14.59;71.75
17260;BME280;8746;49.230;9.220;2023-03-23T14:25:17;99288.38;;;14.77;72.16
17260;BME280;8746;49.230;9.220;2023-03-23T14:27:44;99287.19;;;14.68;72.65
17260;BME280;8746;49.230;9.220;2023-03-23T14:30:15;99298.88;;;14.65;72.85
17260;BME280;8746;49.230;9.220;2023-03-23T14:32:42;99289.59;;;14.45;72.59
17260;BME280;8746;49.230;9.220;2023-03-23T14:37:38;99299.09;;;14.35;72.88
17260;BME280;8746;49.230;9.220;2023-03-23T14:40:03;99292.09;;;14.34;73.16
17260;BME280;8746;49.230;9.220;2023-03-23T14:42:35;99295.50;;;14.36;73.37
17260;BME280;8746;49.230;9.220;2023-03-23T14:45:03;99287.41;;;14.24;72.92
17260;BME280;8746;49.230;9.220;2023-03-23T14:47:40;99290.59;;;14.30;73.28
17260;BME280;8746;49.230;9.220;2023-03-23T14:50:29;99283.03;;;14.23;73.16
17260;BME280;8746;49.230;9.220;2023-03-23T14:52:59;99287.91;;;14.17;73.51
17260;BME280;8746;49.230;9.220;2023-03-23T14:55:26;99290.09;;;14.10;73.45
17260;BME280;8746;49.230;9.220;2023-03-23T14:57:55;99290.94;;;14.10;73.43
17260;BME280;8746;49.230;9.220;2023-03-23T15:00:33;99282.91;;;14.12;73.11
17260;BME280;8746;49.230;9.220;2023-03-23T15:03:01;99285.56;;;14.12;73.60
17260;BME280;8746;49.230;9.220;2023-03-23T15:05:33;99277.78;;;14.09;73.83
17260;BME280;8746;49.230;9.220;2023-03-23T15:08:06;99277.69;;;14.10;73.78
17260;BME280;8746;49.230;9.220;2023-03-23T15:10:33;99269.09;;;14.07;74.38
17260;BME280;8746;49.230;9.220;2023-03-23T15:12:59;99268.69;;;14.13;74.10
17260;BME280;8746;49.230;9.220;2023-03-23T15:17:52;99266.25;;;14.10;74.45
17260;BME280;8746;49.230;9.220;2023-03-23T15:20:28;99265.47;;;14.08;74.54
17260;BME280;8746;49.230;9.220;2023-03-23T15:22:54;99271.41;;;13.99;74.75
17260;BME280;8746;49.230;9.220;2023-03-23T15:25:31;99271.41;;;13.99;74.99